createdAt,value
2018-11-04T00:00:17.605Z,16.03
2018-11-04T00:02:47.407Z,17.27
2018-11-04T00:05:15.615Z,17.43
2018-11-04T00:07:44.660Z,17.20
2018-11-04T00:10:12.822Z,17.80
2018-11-04T00:12:40.662Z,17.27
2018-11-04T00:15:09.383Z,17.60
2018-11-04T00:17:37.203Z,18.20
2018-11-04T00:20:05.726Z,17.57
2018-11-04T00:22:33.233Z,18.13
2018-11-04T00:25:00.599Z,17.50
2018-11-04T00:27:27.960Z,17.57
2018-11-04T00:29:55.525Z,17.23
2018-11-04T00:32:22.933Z,16.57
2018-11-04T00:34:50.411Z,18.77
2018-11-04T00:37:17.762Z,16.93
2018-11-04T00:39:45.284Z,17.67
2018-11-04T00:42:12.753Z,17.93
2018-11-04T00:44:40.283Z,17.83
2018-11-04T00:47:07.707Z,18.37
2018-11-04T00:49:35.111Z,19.47
2018-11-04T00:52:02.572Z,19.03
2018-11-04T00:54:30.063Z,18.23
2018-11-04T00:56:57.491Z,17.30
2018-11-04T00:59:24.894Z,17.17
2018-11-04T01:01:52.336Z,16.30
2018-11-04T01:04:19.789Z,16.70
2018-11-04T01:06:47.349Z,17.70
2018-11-04T01:09:14.993Z,18.40
2018-11-04T01:11:42.379Z,18.10
2018-11-04T01:14:09.725Z,19.20
2018-11-04T01:16:37.231Z,19.87
2018-11-04T01:19:04.898Z,19.20
2018-11-04T01:21:32.331Z,20.40
2018-11-04T01:23:59.872Z,21.33
2018-11-04T01:26:27.465Z,20.07
2018-11-04T01:28:55.021Z,20.60
2018-11-04T01:31:22.579Z,20.70
2018-11-04T01:33:50.554Z,20.93
2018-11-04T01:36:18.026Z,19.07
2018-11-04T01:38:45.550Z,18.93
2018-11-04T01:41:13.199Z,18.80
2018-11-04T01:43:40.651Z,18.97
2018-11-04T01:46:08.287Z,19.33
2018-11-04T01:48:35.748Z,19.20
2018-11-04T01:51:03.505Z,19.50
2018-11-04T01:53:31.014Z,19.73
2018-11-04T01:55:58.561Z,20.20
2018-11-04T01:58:26.245Z,21.60
2018-11-04T02:00:53.850Z,19.87
2018-11-04T02:03:21.385Z,19.90
2018-11-04T02:05:49.038Z,20.17
2018-11-04T02:08:16.740Z,20.67
2018-11-04T02:10:44.349Z,20.63
2018-11-04T02:13:11.784Z,19.80
2018-11-04T02:15:39.286Z,19.70
2018-11-04T02:18:06.775Z,18.97
2018-11-04T02:20:34.203Z,19.80
2018-11-04T02:23:01.735Z,21.47
2018-11-04T02:25:29.340Z,20.40
2018-11-04T02:27:56.880Z,21.27
2018-11-04T02:30:24.377Z,21.70
2018-11-04T02:32:51.908Z,20.23
2018-11-04T02:35:19.466Z,21.17
2018-11-04T02:37:47.049Z,21.57
2018-11-04T02:40:14.513Z,21.13
2018-11-04T02:42:42.193Z,22.47
2018-11-04T02:45:11.237Z,21.77
2018-11-04T02:47:38.751Z,22.43
2018-11-04T02:50:07.023Z,22.00
2018-11-04T02:52:34.497Z,23.03
2018-11-04T02:55:01.904Z,23.20
2018-11-04T02:57:29.419Z,21.47
2018-11-04T02:59:56.922Z,20.93
2018-11-04T03:02:24.497Z,20.23
2018-11-04T03:04:52.190Z,19.23
2018-11-04T03:07:19.781Z,19.63
2018-11-04T03:09:47.843Z,18.80
2018-11-04T03:12:15.364Z,18.33
2018-11-04T03:14:42.936Z,17.40
2018-11-04T03:17:10.501Z,18.00
2018-11-04T03:19:38.063Z,17.20
2018-11-04T03:22:05.894Z,18.27
2018-11-04T03:24:33.413Z,17.90
2018-11-04T03:27:00.877Z,17.70
2018-11-04T03:29:29.543Z,15.97
2018-11-04T03:31:57.127Z,17.70
2018-11-04T03:34:24.881Z,17.17
2018-11-04T03:36:55.077Z,18.30
2018-11-04T03:39:23.884Z,17.33
2018-11-04T03:41:54.505Z,17.97
2018-11-04T03:44:22.213Z,18.43
2018-11-04T03:46:49.702Z,17.53
2018-11-04T03:49:17.345Z,17.73
2018-11-04T03:51:44.898Z,20.33
2018-11-04T03:54:12.472Z,19.87
2018-11-04T03:56:40.041Z,18.77
2018-11-04T03:59:08.073Z,20.00
2018-11-04T04:01:35.676Z,21.73
2018-11-04T04:04:03.151Z,22.17
2018-11-04T04:06:30.611Z,22.57
2018-11-04T04:08:58.340Z,22.97
2018-11-04T04:11:25.853Z,21.30
2018-11-04T04:13:53.368Z,22.33
2018-11-04T04:16:20.810Z,21.53
2018-11-04T04:18:48.275Z,22.50
2018-11-04T04:21:15.918Z,22.33
2018-11-04T04:23:43.466Z,21.90
2018-11-04T04:26:11.449Z,23.83
2018-11-04T04:28:39.241Z,21.87
2018-11-04T04:31:06.730Z,20.90
2018-11-04T04:33:34.155Z,23.30
2018-11-04T04:36:01.685Z,21.87
2018-11-04T04:38:29.064Z,21.03
2018-11-04T04:40:56.549Z,20.73
2018-11-04T04:43:24.266Z,20.03
2018-11-04T04:45:52.171Z,19.80
2018-11-04T04:48:19.716Z,20.77
2018-11-04T04:50:47.151Z,20.27
2018-11-04T04:53:14.724Z,20.60
2018-11-04T04:55:42.316Z,21.10
2018-11-04T04:58:09.711Z,19.70
2018-11-04T05:00:37.627Z,20.87
2018-11-04T05:03:05.277Z,21.13
2018-11-04T05:05:33.124Z,19.00
2018-11-04T05:08:01.172Z,20.43
2018-11-04T05:10:29.761Z,21.33
2018-11-04T05:12:58.607Z,20.37
2018-11-04T05:15:26.971Z,19.67
2018-11-04T05:17:55.426Z,19.73
2018-11-04T05:20:23.785Z,21.90
2018-11-04T05:22:52.442Z,20.33
2018-11-04T05:25:21.014Z,20.37
2018-11-04T05:27:50.117Z,20.57
2018-11-04T05:30:18.953Z,20.90
2018-11-04T05:32:46.559Z,20.27
2018-11-04T05:35:14.390Z,19.90
2018-11-04T05:37:42.947Z,21.60
2018-11-04T05:40:10.885Z,21.40
2018-11-04T05:42:38.529Z,20.27
2018-11-04T05:45:06.910Z,20.80
2018-11-04T05:47:36.228Z,20.50
2018-11-04T05:50:05.484Z,19.57
2018-11-04T05:52:33.165Z,19.80
2018-11-04T05:55:01.270Z,20.30
2018-11-04T05:57:29.842Z,22.40
2018-11-04T05:59:58.880Z,21.57
2018-11-04T06:02:27.536Z,20.30
2018-11-04T06:04:55.822Z,19.50
2018-11-04T06:07:24.567Z,20.47
2018-11-04T06:09:55.057Z,20.07
2018-11-04T06:12:23.056Z,21.10
2018-11-04T06:14:50.509Z,21.50
2018-11-04T06:17:18.036Z,20.77
2018-11-04T06:19:46.116Z,22.50
2018-11-04T06:22:13.645Z,23.20
2018-11-04T06:24:42.357Z,23.43
2018-11-04T06:27:10.074Z,22.97
2018-11-04T06:29:38.323Z,23.43
2018-11-04T06:32:06.915Z,22.03
2018-11-04T06:34:34.912Z,22.27
2018-11-04T06:37:02.768Z,21.70
2018-11-04T06:39:30.698Z,23.10
2018-11-04T06:41:59.077Z,23.57
2018-11-04T06:44:32.255Z,24.83
2018-11-04T06:49:52.481Z,25.50
2018-11-04T06:52:20.157Z,23.60
2018-11-04T06:54:48.872Z,25.00
2018-11-04T06:57:18.985Z,25.63
2018-11-04T06:59:47.364Z,23.97
2018-11-04T07:02:15.155Z,26.47
2018-11-04T07:04:42.759Z,26.63
2018-11-04T07:07:10.477Z,25.73
2018-11-04T07:09:42.583Z,26.77
2018-11-04T07:12:10.883Z,25.67
2018-11-04T07:14:38.808Z,29.23
2018-11-04T07:17:09.102Z,32.77
2018-11-04T07:19:55.031Z,32.40
2018-11-04T07:22:23.321Z,37.43
2018-11-04T07:24:51.959Z,47.10
2018-11-04T07:27:21.154Z,40.13
2018-11-04T07:29:49.161Z,43.90
2018-11-04T07:32:19.240Z,44.07
2018-11-04T07:34:48.461Z,47.37
2018-11-04T07:37:17.432Z,56.00
2018-11-04T07:39:45.625Z,49.80
2018-11-04T07:42:13.577Z,61.07
2018-11-04T07:44:42.418Z,51.80
2018-11-04T07:47:10.611Z,50.80
2018-11-04T07:49:39.038Z,47.00
2018-11-04T07:52:07.107Z,56.60
2018-11-04T07:54:35.859Z,67.70
2018-11-04T07:57:04.459Z,54.43
2018-11-04T07:59:33.065Z,57.27
2018-11-04T08:02:01.054Z,52.73
2018-11-04T08:04:29.955Z,52.73
2018-11-04T08:06:58.061Z,65.43
2018-11-04T08:09:26.956Z,61.53
2018-11-04T08:11:55.309Z,58.53
2018-11-04T08:14:23.315Z,66.07
2018-11-04T08:16:52.503Z,49.53
2018-11-04T08:19:21.130Z,62.97
2018-11-04T08:21:49.457Z,55.53
2018-11-04T08:24:17.728Z,66.20
2018-11-04T08:26:47.321Z,73.57
2018-11-04T08:29:15.068Z,65.63
2018-11-04T08:31:43.070Z,56.87
2018-11-04T08:34:13.852Z,58.43
2018-11-04T08:36:42.410Z,52.60
2018-11-04T08:39:11.944Z,53.00
2018-11-04T08:41:40.135Z,55.30
2018-11-04T08:44:09.022Z,52.33
2018-11-04T08:46:36.844Z,55.57
2018-11-04T08:49:05.577Z,49.97
2018-11-04T08:51:33.929Z,48.77
2018-11-04T08:54:02.225Z,50.37
2018-11-04T08:56:30.534Z,47.53
2018-11-04T08:58:58.669Z,50.30
2018-11-04T09:01:26.502Z,49.07
2018-11-04T09:03:54.936Z,47.80
2018-11-04T09:06:23.925Z,46.87
2018-11-04T09:08:51.953Z,45.10
2018-11-04T09:11:20.827Z,44.93
2018-11-04T09:14:03.565Z,44.10
2018-11-04T09:16:31.820Z,41.67
2018-11-04T09:19:00.169Z,42.20
2018-11-04T09:21:28.333Z,39.13
2018-11-04T09:23:56.298Z,40.97
2018-11-04T09:26:28.062Z,39.37
2018-11-04T09:45:11.351Z,36.10
2018-11-04T09:47:39.463Z,37.13
2018-11-04T09:50:08.502Z,35.73
2018-11-04T09:52:36.352Z,34.73
2018-11-04T09:55:05.030Z,37.47
2018-11-04T10:02:43.217Z,34.13
2018-11-04T10:05:11.569Z,35.70
2018-11-04T10:07:39.796Z,35.37
2018-11-04T10:10:10.738Z,35.70
2018-11-04T10:12:39.167Z,36.93
2018-11-04T10:15:07.577Z,33.77
2018-11-04T10:17:35.537Z,36.13
2018-11-04T10:20:04.469Z,34.80
2018-11-04T10:22:31.849Z,35.03
2018-11-04T10:24:59.638Z,34.57
2018-11-04T10:27:28.886Z,35.37
2018-11-04T10:29:56.944Z,35.47
2018-11-04T10:32:26.487Z,35.67
2018-11-04T10:34:54.980Z,36.77
2018-11-04T10:37:22.941Z,36.87
2018-11-04T10:39:53.378Z,34.63
2018-11-04T10:42:29.424Z,35.33
2018-11-04T10:45:01.941Z,35.17
2018-11-04T10:47:31.140Z,33.03
2018-11-04T10:49:59.035Z,34.47
2018-11-04T10:52:33.977Z,33.47
2018-11-04T10:55:01.554Z,33.63
2018-11-04T10:57:29.809Z,34.63
2018-11-04T10:59:57.990Z,35.63
2018-11-04T11:02:26.712Z,34.80
2018-11-04T11:04:57.172Z,31.30
2018-11-04T11:07:25.700Z,31.20
2018-11-04T11:13:08.439Z,34.13
2018-11-04T11:21:22.835Z,33.53
2018-11-04T11:27:01.482Z,31.70
2018-11-04T11:29:30.844Z,31.40
2018-11-04T11:31:59.719Z,33.23
2018-11-04T11:34:28.618Z,33.57
2018-11-04T11:39:33.183Z,33.83
2018-11-04T11:42:01.764Z,34.20
2018-11-04T11:44:29.575Z,33.33
2018-11-04T11:47:01.999Z,32.93
2018-11-04T11:49:30.443Z,32.83
2018-11-04T11:51:59.418Z,34.23
2018-11-04T11:54:28.085Z,31.40
2018-11-04T11:56:56.488Z,33.30
2018-11-04T11:59:25.368Z,34.57
2018-11-04T12:01:53.951Z,33.13
2018-11-04T12:04:23.149Z,33.00
2018-11-04T12:06:54.134Z,33.00
2018-11-04T12:09:24.278Z,30.63
2018-11-04T12:11:52.956Z,34.27
2018-11-04T12:14:21.343Z,33.07
2018-11-04T12:16:51.910Z,31.60
2018-11-04T12:19:21.456Z,33.67
2018-11-04T12:21:50.230Z,33.73
2018-11-04T12:24:18.770Z,33.03
2018-11-04T12:26:48.019Z,32.60
2018-11-04T12:29:18.061Z,32.07
2018-11-04T12:31:46.618Z,34.40
2018-11-04T12:34:16.978Z,31.13
2018-11-04T12:36:59.787Z,32.83
2018-11-04T12:39:28.476Z,32.77
2018-11-04T12:42:03.006Z,33.77
2018-11-04T12:44:31.454Z,31.93
2018-11-04T12:47:27.780Z,33.60
2018-11-04T12:49:59.336Z,33.70
2018-11-04T12:52:30.080Z,33.63
2018-11-04T12:55:00.180Z,33.83
2018-11-04T12:57:43.782Z,33.43
2018-11-04T13:00:15.774Z,33.40
2018-11-04T13:02:47.281Z,32.87
2018-11-04T13:05:16.209Z,35.00
2018-11-04T13:07:45.029Z,34.33
2018-11-04T13:10:14.133Z,32.07
2018-11-04T13:12:45.512Z,31.63
2018-11-04T13:15:15.652Z,33.27
2018-11-04T13:17:44.886Z,32.40
2018-11-04T13:20:13.237Z,33.37
2018-11-04T13:22:42.670Z,31.67
2018-11-04T13:25:10.751Z,31.07
2018-11-04T13:27:41.003Z,30.87
2018-11-04T13:30:11.151Z,31.43
2018-11-04T13:32:39.287Z,31.97
2018-11-04T13:35:07.763Z,31.53
2018-11-04T13:37:35.661Z,33.27
2018-11-04T13:40:05.334Z,32.60
2018-11-04T13:42:40.796Z,30.83
2018-11-04T13:45:09.648Z,31.73
2018-11-04T13:47:38.794Z,32.63
2018-11-04T13:50:09.027Z,33.60
2018-11-04T13:52:37.569Z,31.23
2018-11-04T13:55:09.874Z,30.50
2018-11-04T13:57:38.747Z,28.73
2018-11-04T14:00:10.043Z,32.17
2018-11-04T14:02:39.480Z,31.83
2018-11-04T14:05:08.884Z,31.97
2018-11-04T14:07:37.226Z,30.70
2018-11-04T14:10:15.124Z,30.77
2018-11-04T14:12:50.494Z,30.70
2018-11-04T14:15:20.445Z,29.67
2018-11-04T14:17:49.554Z,30.43
2018-11-04T14:20:19.083Z,28.70
2018-11-04T14:22:48.863Z,29.43
2018-11-04T14:25:18.817Z,29.40
2018-11-04T14:27:49.477Z,29.63
2018-11-04T14:30:21.839Z,29.20
2018-11-04T14:32:50.723Z,28.30
2018-11-04T14:35:21.885Z,28.93
2018-11-04T14:37:50.260Z,28.87
2018-11-04T14:40:30.106Z,27.27
2018-11-04T14:43:00.091Z,29.43
2018-11-04T14:45:29.932Z,28.87
2018-11-04T14:47:58.850Z,29.37
2018-11-04T14:50:27.512Z,29.10
2018-11-04T14:55:52.893Z,29.47
2018-11-04T14:58:22.193Z,28.87
2018-11-04T15:00:50.480Z,29.37
2018-11-04T15:03:19.871Z,29.10
2018-11-04T15:05:50.252Z,29.17
2018-11-04T15:08:23.317Z,29.53
2018-11-04T15:10:53.207Z,28.47
2018-11-04T15:13:22.929Z,29.93
2018-11-04T15:15:52.064Z,28.07
2018-11-04T15:18:26.638Z,30.07
2018-11-04T15:20:55.139Z,30.03
2018-11-04T15:23:27.350Z,30.30
2018-11-04T15:25:57.670Z,29.67
2018-11-04T15:28:26.926Z,30.03
2018-11-04T15:30:57.267Z,30.50
2018-11-04T15:33:37.249Z,30.97
2018-11-04T15:36:11.128Z,30.87
2018-11-04T15:38:41.874Z,30.00
2018-11-04T15:41:18.260Z,32.20
2018-11-04T15:43:57.891Z,31.73
2018-11-04T15:46:30.761Z,31.53
2018-11-04T15:49:00.755Z,32.45
2018-11-04T15:52:01.874Z,31.03
2018-11-04T15:54:30.776Z,32.17
2018-11-04T15:57:09.152Z,31.70
2018-11-04T16:02:31.121Z,32.37
2018-11-04T16:07:53.803Z,32.97
2018-11-04T16:10:21.993Z,32.07
2018-11-04T16:12:50.353Z,31.47
2018-11-04T16:15:20.549Z,32.97
2018-11-04T16:17:54.747Z,32.07
2018-11-04T16:20:24.155Z,33.03
2018-11-04T16:22:52.742Z,32.93
2018-11-04T16:25:20.913Z,33.00
2018-11-04T16:27:49.679Z,33.10
2018-11-04T16:30:17.606Z,34.10
2018-11-04T16:32:45.622Z,33.10
2018-11-04T16:35:14.337Z,32.83
2018-11-04T16:37:43.982Z,32.17
2018-11-04T16:40:12.897Z,34.13
2018-11-04T16:42:41.255Z,34.20
2018-11-04T16:45:14.019Z,32.20
2018-11-04T16:50:34.192Z,33.83
2018-11-04T16:53:02.034Z,34.10
2018-11-04T16:55:30.189Z,34.37
2018-11-04T16:57:58.168Z,33.47
2018-11-04T17:00:26.694Z,35.87
2018-11-04T17:02:54.746Z,35.17
2018-11-04T17:05:23.808Z,34.07
2018-11-04T17:07:51.515Z,35.07
2018-11-04T17:10:19.604Z,34.23
2018-11-04T17:12:49.711Z,33.90
2018-11-04T17:15:17.506Z,34.63
2018-11-04T17:17:45.453Z,34.23
2018-11-04T17:23:26.814Z,34.77
2018-11-04T17:25:54.918Z,33.13
2018-11-04T17:28:22.841Z,35.53
2018-11-04T17:30:52.202Z,35.10
2018-11-04T17:33:25.056Z,34.70
2018-11-04T17:35:54.659Z,34.67
2018-11-04T17:38:23.716Z,36.10
2018-11-04T17:40:52.466Z,34.10
2018-11-04T17:43:21.935Z,35.03
2018-11-04T17:45:50.702Z,35.37
2018-11-04T17:48:19.172Z,35.70
2018-11-04T17:50:47.376Z,36.83
2018-11-04T17:53:18.252Z,36.00
2018-11-04T17:55:46.853Z,35.15
2018-11-04T17:58:15.370Z,37.33
2018-11-04T18:00:43.898Z,35.77
2018-11-04T18:03:12.453Z,37.30
2018-11-04T18:06:07.176Z,38.33
2018-11-04T18:08:47.785Z,38.83
2018-11-04T18:11:15.842Z,40.10
2018-11-04T18:13:44.698Z,39.70
2018-11-04T18:16:14.518Z,39.90
2018-11-04T18:18:42.948Z,39.53
2018-11-04T18:21:11.587Z,39.53
2018-11-04T18:23:40.033Z,38.70
2018-11-04T18:26:08.394Z,40.63
2018-11-04T18:28:36.456Z,39.53
2018-11-04T18:31:04.840Z,41.10
2018-11-04T18:33:32.944Z,40.83
2018-11-04T18:36:01.140Z,41.73
2018-11-04T18:38:29.772Z,41.73
2018-11-04T18:40:58.216Z,41.30
2018-11-04T18:43:29.270Z,40.77
2018-11-04T18:45:57.118Z,40.73
2018-11-04T19:48:14.931Z,42.50
2018-11-04T19:50:42.580Z,45.17
2018-11-04T19:53:10.565Z,45.23
2018-11-04T19:55:38.535Z,47.40
2018-11-04T19:58:06.613Z,45.67
2018-11-04T20:00:34.300Z,46.20
2018-11-04T20:03:02.099Z,48.27
2018-11-04T20:05:30.304Z,48.37
2018-11-04T20:07:58.178Z,46.30
2018-11-04T20:10:26.286Z,47.93
2018-11-04T20:12:59.869Z,48.67
2018-11-04T20:15:27.927Z,47.30
2018-11-04T20:17:55.749Z,48.33
2018-11-04T20:20:25.407Z,49.00
2018-11-04T20:22:53.694Z,51.47
2018-11-04T20:25:27.383Z,49.67
2018-11-04T20:27:55.264Z,49.50
2018-11-04T20:30:23.416Z,50.17
2018-11-04T20:32:57.098Z,52.63
2018-11-04T20:35:25.278Z,48.57
2018-11-04T20:37:53.244Z,48.50
2018-11-04T20:40:26.806Z,48.77
2018-11-04T20:42:54.745Z,49.40
2018-11-04T20:45:23.034Z,49.20
2018-11-04T20:48:10.601Z,50.37
2018-11-04T21:08:11.619Z,49.87
2018-11-04T21:10:39.681Z,49.43
2018-11-04T21:13:07.638Z,50.40
2018-11-04T21:15:35.561Z,50.70
2018-11-04T21:38:14.271Z,51.33
2018-11-04T21:40:42.685Z,50.20
2018-11-04T21:43:10.896Z,48.13
2018-11-04T21:45:38.993Z,51.10
2018-11-04T21:48:06.932Z,52.83
2018-11-04T21:50:40.963Z,51.60
2018-11-04T22:10:25.987Z,49.30
2018-11-04T22:12:54.113Z,55.07
2018-11-04T22:15:21.969Z,52.17
2018-11-04T22:17:49.899Z,50.97
2018-11-04T22:20:17.917Z,50.30
2018-11-04T22:22:45.875Z,51.03
2018-11-04T22:25:15.889Z,52.87
2018-11-04T22:27:43.758Z,52.10
2018-11-04T22:30:12.243Z,51.37
2018-11-04T22:32:40.145Z,51.33
2018-11-04T22:35:09.410Z,52.90
2018-11-04T22:37:37.785Z,53.30
2018-11-04T22:40:06.606Z,52.47
2018-11-04T22:42:34.705Z,53.50
2018-11-04T22:45:02.508Z,52.83
2018-11-04T22:47:30.350Z,53.10
2018-11-04T22:49:58.342Z,52.00
2018-11-04T22:52:26.150Z,52.23
2018-11-04T22:54:53.937Z,52.73
2018-11-04T22:57:21.846Z,50.30
2018-11-04T22:59:49.892Z,55.13
2018-11-04T23:02:17.867Z,52.67
2018-11-04T23:04:51.340Z,50.60
2018-11-04T23:07:19.446Z,53.23
2018-11-04T23:09:47.190Z,51.87
2018-11-04T23:12:14.933Z,51.40
2018-11-04T23:14:42.828Z,51.83
2018-11-04T23:17:10.881Z,51.53
2018-11-04T23:19:38.717Z,50.30
2018-11-04T23:22:06.747Z,52.83
2018-11-04T23:24:34.603Z,52.63
2018-11-04T23:27:02.616Z,50.60
2018-11-04T23:29:30.344Z,51.50
2018-11-04T23:31:58.141Z,51.13
2018-11-04T23:34:25.969Z,52.47
2018-11-04T23:36:53.760Z,50.67
2018-11-04T23:39:21.552Z,51.23
2018-11-04T23:41:49.399Z,51.40
2018-11-04T23:44:17.401Z,49.67
2018-11-04T23:46:45.252Z,51.60
2018-11-04T23:49:13.222Z,51.03
2018-11-04T23:51:41.188Z,51.00
2018-11-04T23:54:09.129Z,50.93
2018-11-04T23:56:36.955Z,51.67
2018-11-04T23:59:05.100Z,51.80
